Time;durP1;ratioP1;P1;durP2;ratioP2;P2;SDS_P1;SDS_P2;PMS_P1;PMS_P2;Temp;Humidity;BMP_temperature;BMP_pressure;BME280_temperature;BME280_humidity;BME280_pressure;Samples;Min_cycle;Max_cycle;Signal;HPM_P1;HPM_P2
2023/12/28 06:11:19;;;;;;;;;;;;;;;0.62;100.00;100636.87;1837241;76;20171;-71
2023/12/28 06:13:46;;;;;;;;;;;;;;;0.61;100.00;100641.57;1842252;76;20163;-72
2023/12/28 06:16:13;;;;;;;;;;;;;;;0.64;100.00;100647.11;1838211;76;20475;-72
2023/12/28 06:18:40;;;;;;;;;;;;;;;0.63;100.00;100638.57;1840702;77;20736;-77
2023/12/28 06:21:08;;;;;;;;;;;;;;;0.66;100.00;100656.49;1832939;77;20113;-72
2023/12/28 06:23:34;;;;;;;;;;;;;;;0.70;100.00;100662.45;1844813;77;20093;-74
2023/12/28 06:26:07;;;;;;;;;;;;;;;0.76;100.00;100663.70;1845644;77;20124;-75
2023/12/28 06:28:34;;;;;;;;;;;;;;;0.82;100.00;100664.92;1843323;77;20181;-72
2023/12/28 06:31:01;;;;;;;;;;;;;;;0.89;100.00;100656.33;1832811;78;20371;-77
2023/12/28 06:33:31;;;;;;;;;;;;;;;0.93;100.00;100661.86;1833066;78;20387;-75
2023/12/28 06:35:58;;;;;;;;;;;;;;;0.99;100.00;100668.23;1838214;77;20143;-74
2023/12/28 06:38:25;;;;;;;;;;;;;;;1.04;100.00;100671.20;1846282;77;20101;-71
2023/12/28 06:40:51;;;;;;;;;;;;;;;1.07;100.00;100673.31;1840404;77;20092;-71
2023/12/28 06:43:18;;;;;;;;;;;;;;;1.11;100.00;100681.41;1833755;77;20399;-72
2023/12/28 06:45:47;;;;;;;;;;;;;;;1.15;100.00;100675.39;1844415;77;20794;-76
2023/12/28 06:48:14;;;;;;;;;;;;;;;1.20;100.00;100681.31;1834365;76;20341;-73
2023/12/28 06:50:44;;;;;;;;;;;;;;;1.25;100.00;100679.56;1836508;77;20103;-77
2023/12/28 06:53:10;;;;;;;;;;;;;;;1.28;100.00;100687.23;1841168;77;20385;-71
2023/12/28 06:55:37;;;;;;;;;;;;;;;1.32;100.00;100695.34;1852542;77;20161;-75
2023/12/28 06:58:06;;;;;;;;;;;;;;;1.37;100.00;100693.17;1836489;77;20153;-74
2023/12/28 07:00:32;;;;;;;;;;;;;;;1.41;100.00;100692.28;1837547;77;20115;-73
2023/12/28 07:03:01;;;;;;;;;;;;;;;1.48;100.00;100698.64;1839385;76;20129;-75
2023/12/28 07:05:28;;;;;;;;;;;;;;;1.55;100.00;100696.88;1834160;77;20327;-74
2023/12/28 07:08:02;;;;;;;;;;;;;;;1.61;100.00;100687.81;1773423;80;20179;-77
2023/12/28 07:10:32;;;;;;;;;;;;;;;1.68;100.00;100700.58;1757635;81;20106;-74
2023/12/28 07:13:07;;;;;;;;;;;;;;;1.78;100.00;100708.20;1781020;80;20154;-72
2023/12/28 08:13:08;;;;;;;;;;;;;;;3.33;100.00;100740.52;1773964;79;20181;-68
2023/12/28 08:15:35;;;;;;;;;;;;;;;3.41;100.00;100742.98;1775391;80;20103;-70
2023/12/28 08:18:01;;;;;;;;;;;;;;;3.48;100.00;100745.87;1756502;81;20164;-69
2023/12/28 08:20:28;;;;;;;;;;;;;;;3.58;100.00;100747.88;1742267;81;20098;-69
2023/12/28 08:22:55;;;;;;;;;;;;;;;3.69;100.00;100736.49;1744472;81;20161;-71
2023/12/28 08:25:22;;;;;;;;;;;;;;;3.83;100.00;100735.42;1744518;81;20380;-73
2023/12/28 08:27:49;;;;;;;;;;;;;;;3.96;100.00;100750.64;1755026;81;20110;-71
2023/12/28 08:30:16;;;;;;;;;;;;;;;4.07;100.00;100731.09;1761007;81;20355;-72
2023/12/28 09:12:35;;;;;;;;;;;;;;;3.96;100.00;100711.99;1774899;80;20086;-72
2023/12/28 09:15:01;;;;;;;;;;;;;;;3.95;100.00;100703.00;1776470;80;20139;-74
2023/12/28 09:17:28;;;;;;;;;;;;;;;3.96;100.00;100713.28;1771473;80;20240;-72
2023/12/28 09:19:54;;;;;;;;;;;;;;;3.96;100.00;100691.82;1777492;79;20106;-70
2023/12/28 09:22:21;;;;;;;;;;;;;;;3.95;100.00;100690.97;1777078;80;20138;-73
2023/12/28 09:24:47;;;;;;;;;;;;;;;3.93;100.00;100686.28;1771661;80;20117;-69
2023/12/28 09:27:14;;;;;;;;;;;;;;;3.91;100.00;100699.62;1771733;80;20102;-70
2023/12/28 09:29:41;;;;;;;;;;;;;;;3.85;100.00;100692.45;1771802;81;20106;-71
2023/12/28 09:32:08;;;;;;;;;;;;;;;3.79;100.00;100686.96;1782996;80;20375;-74
2023/12/28 09:34:34;;;;;;;;;;;;;;;3.77;100.00;100691.30;1775841;80;20096;-70
2023/12/28 09:37:01;;;;;;;;;;;;;;;3.77;100.00;100695.16;1776135;80;20110;-74
2023/12/28 10:09:26;;;;;;;;;;;;;;;4.06;100.00;100682.16;1758717;81;20368;-72
2023/12/28 10:11:54;;;;;;;;;;;;;;;4.12;100.00;100672.59;1758880;80;20114;-70
2023/12/28 10:14:20;;;;;;;;;;;;;;;4.20;100.00;100675.02;1758907;81;20094;-70
2023/12/28 10:16:47;;;;;;;;;;;;;;;4.24;100.00;100672.36;1761991;81;20376;-74
2023/12/28 10:24:16;;;;;;;;;;;;;;;4.31;100.00;100679.09;1764284;81;20157;-69
2023/12/28 10:26:43;;;;;;;;;;;;;;;4.34;100.00;100679.03;1757419;81;20151;-69
2023/12/28 10:29:10;;;;;;;;;;;;;;;4.38;100.00;100672.09;1725466;81;20136;-70
2023/12/28 11:04:50;;;;;;;;;;;;;;;4.05;100.00;100640.52;1746885;81;20138;-70
2023/12/28 11:07:18;;;;;;;;;;;;;;;4.00;100.00;100636.74;1761120;80;20183;-68
2023/12/28 11:09:45;;;;;;;;;;;;;;;3.97;100.00;100640.27;1781368;81;20112;-76
2023/12/28 11:12:12;;;;;;;;;;;;;;;3.97;100.00;100636.39;1787623;80;20194;-71
2023/12/28 11:14:42;;;;;;;;;;;;;;;3.98;100.00;100629.52;1772969;80;20154;-71
2023/12/28 11:17:11;;;;;;;;;;;;;;;3.95;100.00;100619.27;1766198;81;20526;-70
2023/12/28 11:19:38;;;;;;;;;;;;;;;3.92;100.00;100618.89;1763001;81;20495;-70
2023/12/28 11:22:04;;;;;;;;;;;;;;;3.90;100.00;100611.62;1755977;82;20399;-70
2023/12/28 11:24:31;;;;;;;;;;;;;;;3.88;100.00;100601.79;1755833;80;20133;-72
2023/12/28 11:26:58;;;;;;;;;;;;;;;3.85;100.00;100607.00;1772555;80;20108;-70
2023/12/28 11:29:24;;;;;;;;;;;;;;;3.82;100.00;100609.63;1767195;80;20085;-72
2023/12/28 11:31:52;;;;;;;;;;;;;;;3.83;100.00;100606.62;1767238;81;20390;-72
2023/12/28 11:34:18;;;;;;;;;;;;;;;3.81;100.00;100601.94;1764638;80;20135;-68
2023/12/28 11:36:52;;;;;;;;;;;;;;;3.78;100.00;100596.84;1766348;81;20433;-73
2023/12/28 11:39:22;;;;;;;;;;;;;;;3.73;100.00;100601.22;1767277;81;20445;-73
2023/12/28 11:41:48;;;;;;;;;;;;;;;3.65;100.00;100602.65;1767014;80;20096;-70
2023/12/28 11:44:15;;;;;;;;;;;;;;;3.59;100.00;100599.78;1756777;80;20110;-73
2023/12/28 11:46:42;;;;;;;;;;;;;;;3.57;100.00;100592.95;1753772;81;20086;-69
2023/12/28 14:02:04;;;;;;;;;;;;;;;2.28;100.00;100458.42;1765754;80;20119;-72
2023/12/28 14:04:32;;;;;;;;;;;;;;;2.23;100.00;100451.22;1774125;80;20564;-71
2023/12/28 14:06:59;;;;;;;;;;;;;;;2.18;100.00;100446.59;1770134;80;20137;-67
